Time;durP1;ratioP1;P1;durP2;ratioP2;P2;SDS_P1;SDS_P2;PMS_P1;PMS_P2;Temp;Humidity;BMP_temperature;BMP_pressure;BME280_temperature;BME280_humidity;BME280_pressure;Samples;Min_cycle;Max_cycle;Signal;HPM_P1;HPM_P2
2023/06/10 00:02:22;;;;;;;15.85;6.35;;;;;;;19.34;52.36;99988.66;123448;1102;104325;-78
2023/06/10 00:04:53;;;;;;;15.40;6.60;;;;;;;19.28;53.08;99986.05;123416;1102;104169;-78
2023/06/10 00:07:25;;;;;;;18.30;6.37;;;;;;;19.20;53.21;99986.11;123504;1102;104249;-78
2023/06/10 00:09:57;;;;;;;14.20;6.40;;;;;;;19.16;52.89;99987.02;123348;1100;104329;-78
2023/06/10 00:12:28;;;;;;;14.20;6.40;;;;;;;19.12;52.66;99987.95;123272;1102;104371;-78
2023/06/10 00:15:00;;;;;;;14.60;6.27;;;;;;;19.11;53.22;99987.97;123471;1102;104842;-78
2023/06/10 00:17:32;;;;;;;16.30;7.70;;;;;;;19.11;53.01;99990.62;123435;1102;104255;-78
2023/06/10 00:20:08;;;;;;;15.13;6.90;;;;;;;19.12;53.07;99987.05;123499;1102;104393;-78
2023/06/10 00:22:41;;;;;;;14.83;6.27;;;;;;;19.07;53.25;99991.53;123427;1102;104362;-79
2023/06/10 00:25:12;;;;;;;14.13;6.37;;;;;;;19.02;53.24;99984.45;123355;1102;104443;-78
2023/06/10 00:27:43;;;;;;;15.77;6.60;;;;;;;18.98;53.15;99988.05;123354;1102;104315;-78
2023/06/10 00:30:15;;;;;;;19.07;6.60;;;;;;;18.95;53.58;99977.44;123376;1102;104249;-78
2023/06/10 00:32:47;;;;;;;18.80;7.83;;;;;;;18.90;53.80;99971.28;123350;1102;104223;-78
2023/06/10 00:35:18;;;;;;;15.50;6.30;;;;;;;18.90;53.49;99976.59;123391;1102;104352;-78
2023/06/10 00:37:49;;;;;;;17.70;7.65;;;;;;;18.89;53.66;99979.27;123321;1100;104444;-78
2023/06/10 00:40:20;;;;;;;15.40;6.65;;;;;;;18.81;54.14;99980.15;123426;1102;104354;-79
2023/06/10 00:42:52;;;;;;;14.40;6.67;;;;;;;18.74;54.08;99980.20;123405;1102;104364;-78
2023/06/10 00:45:25;;;;;;;17.87;7.50;;;;;;;18.65;54.35;99986.44;123360;1102;104262;-77
2023/06/10 00:47:57;;;;;;;19.17;7.70;;;;;;;18.65;54.45;99979.37;123350;1102;104361;-78
2023/06/10 00:50:29;;;;;;;14.73;7.07;;;;;;;18.65;54.38;99984.69;123583;1102;104178;-78
2023/06/10 00:53:02;;;;;;;18.43;7.70;;;;;;;18.61;54.90;99985.58;123427;1102;104268;-78
2023/06/10 00:55:35;;;;;;;16.80;7.43;;;;;;;18.57;55.30;99989.12;123398;1102;104284;-77
2023/06/10 00:58:07;;;;;;;15.83;7.67;;;;;;;18.56;55.37;99976.76;123575;1102;105611;-79
2023/06/10 01:00:38;;;;;;;16.13;7.43;;;;;;;18.53;55.32;99981.19;123515;1102;104295;-78
2023/06/10 01:03:09;;;;;;;17.83;7.40;;;;;;;18.47;55.60;99987.44;123401;1102;104425;-78
2023/06/10 01:05:42;;;;;;;15.80;7.33;;;;;;;18.44;55.75;99985.66;123388;1102;104274;-79
2023/06/10 01:08:28;;;;;;;19.87;7.90;;;;;;;18.46;55.60;99990.97;123298;1102;104306;-78
2023/06/10 01:11:01;;;;;;;15.40;7.27;;;;;;;18.47;56.36;100003.37;123372;1102;104248;-78
2023/06/10 01:13:33;;;;;;;15.13;7.17;;;;;;;18.48;55.54;99991.83;123416;1102;104376;-77
2023/06/10 01:16:05;;;;;;;19.13;6.97;;;;;;;18.47;56.22;99992.74;123483;1102;104386;-78
2023/06/10 01:18:38;;;;;;;19.00;7.50;;;;;;;18.41;56.35;100004.27;123635;1100;104238;-78
2023/06/10 01:21:16;;;;;;;17.50;6.90;;;;;;;18.39;56.56;100005.19;123327;1102;104620;-77
2023/06/10 01:23:48;;;;;;;17.83;7.73;;;;;;;18.40;56.45;100002.52;123432;1102;104280;-78
2023/06/10 01:26:23;;;;;;;19.83;7.10;;;;;;;18.43;56.69;99998.95;123364;1102;104298;-77
2023/06/10 01:28:59;;;;;;;17.63;7.63;;;;;;;18.39;56.88;100005.19;123339;1102;104370;-78
2023/06/10 01:31:39;;;;;;;17.33;6.77;;;;;;;18.29;56.98;100007.88;123359;1102;104278;-78
2023/06/10 01:34:14;;;;;;;15.97;7.20;;;;;;;18.19;56.83;100008.78;123556;1102;104234;-77
2023/06/10 01:36:48;;;;;;;14.40;6.87;;;;;;;18.13;57.15;100008.80;123308;1102;104284;-78
2023/06/10 01:39:22;;;;;;;16.10;6.60;;;;;;;18.08;57.25;100006.16;123426;1102;104351;-79
2023/06/10 01:41:55;;;;;;;18.62;7.40;;;;;;;18.06;56.94;100004.39;123616;1102;104789;-77
2023/06/10 01:44:26;;;;;;;16.17;6.70;;;;;;;18.05;57.28;100011.48;123328;1102;104265;-79
2023/06/10 01:46:57;;;;;;;15.53;6.67;;;;;;;18.02;57.56;100018.58;123342;1102;104275;-78
2023/06/10 01:49:29;;;;;;;15.27;6.70;;;;;;;17.96;57.79;100022.12;123272;1102;104302;-78
2023/06/10 01:52:00;;;;;;;14.53;6.20;;;;;;;17.93;57.47;100019.47;123420;1102;104313;-79
2023/06/10 01:54:31;;;;;;;17.87;6.90;;;;;;;17.92;57.80;100018.59;123306;1100;104373;-78
2023/06/10 01:57:03;;;;;;;16.30;6.43;;;;;;;17.90;57.74;100019.48;123364;1102;104258;-79
2023/06/10 01:59:36;;;;;;;12.93;6.77;;;;;;;17.86;57.97;100025.66;123237;1102;104322;-77
2023/06/10 02:02:08;;;;;;;20.30;6.65;;;;;;;17.83;58.14;100026.54;123376;1102;104723;-78
2023/06/10 02:04:39;;;;;;;15.70;6.77;;;;;;;17.81;57.87;100027.42;123294;1101;104654;-78
2023/06/10 02:07:12;;;;;;;17.53;7.00;;;;;;;17.78;57.96;100033.63;123385;1102;104514;-78
2023/06/10 02:09:46;;;;;;;17.10;6.65;;;;;;;17.75;58.57;100034.51;123276;1102;104335;-77
2023/06/10 02:12:17;;;;;;;14.23;6.50;;;;;;;17.76;58.52;100033.63;123260;1100;104402;-78
2023/06/10 02:14:49;;;;;;;16.87;7.03;;;;;;;17.81;58.47;100032.72;123403;1102;104350;-79
2023/06/10 02:17:20;;;;;;;17.67;7.40;;;;;;;17.77;58.58;100031.86;123302;1102;104239;-78
2023/06/10 02:19:53;;;;;;;14.63;7.00;;;;;;;17.77;58.60;100026.55;123160;1102;104623;-77
2023/06/10 02:22:25;;;;;;;15.63;6.85;;;;;;;17.76;58.66;100035.38;123372;1102;104226;-78
2023/06/10 02:24:56;;;;;;;20.07;6.80;;;;;;;17.75;59.04;100039.82;123298;1102;104303;-78
2023/06/10 02:27:29;;;;;;;17.87;7.00;;;;;;;17.71;59.44;100032.73;123354;1102;104310;-77
2023/06/10 02:30:00;;;;;;;15.77;7.50;;;;;;;17.64;59.16;100043.35;123360;1102;104338;-78
2023/06/10 02:32:31;;;;;;;16.60;7.17;;;;;;;17.59;59.37;100032.73;123345;1102;104229;-78
2023/06/10 02:35:03;;;;;;;15.10;6.70;;;;;;;17.56;59.50;100038.95;123309;1102;104248;-79
2023/06/10 02:37:34;;;;;;;18.27;6.87;;;;;;;17.57;59.65;100035.39;123336;1102;104351;-78
2023/06/10 02:40:07;;;;;;;13.95;6.85;;;;;;;17.63;59.59;100038.95;123332;1102;105608;-78
2023/06/10 02:42:38;;;;;;;20.50;8.23;;;;;;;17.60;59.78;100042.48;123568;1102;104312;-77
2023/06/10 02:45:11;;;;;;;15.73;7.10;;;;;;;17.61;59.83;100037.17;123276;1102;104322;-77
2023/06/10 02:47:45;;;;;;;14.40;6.83;;;;;;;17.61;60.32;100038.95;123286;1102;104291;-78
2023/06/10 02:50:17;;;;;;;15.73;7.20;;;;;;;17.57;60.50;100043.35;123267;1102;104226;-77
2023/06/10 02:53:04;;;;;;;14.40;7.10;;;;;;;17.50;60.38;100044.26;123361;1102;104325;-78
2023/06/10 02:55:37;;;;;;;17.47;6.90;;;;;;;17.43;60.79;100037.17;123401;1102;104249;-77
2023/06/10 02:58:10;;;;;;;14.05;6.50;;;;;;;17.41;60.51;100045.13;123225;1102;104322;-77
2023/06/10 03:00:43;;;;;;;16.93;7.10;;;;;;;17.44;61.04;100046.91;123265;1102;104328;-77
2023/06/10 03:03:14;;;;;;;16.77;7.50;;;;;;;17.47;60.83;100043.35;123317;1102;104325;-78
2023/06/10 03:06:08;;;;;;;17.42;7.00;;;;;;;17.52;61.15;100057.52;123437;1102;104275;-78
2023/06/10 03:08:40;;;;;;;16.23;6.67;;;;;;;17.58;61.10;100053.09;123489;1102;104354;-78
2023/06/10 03:11:13;;;;;;;20.40;7.60;;;;;;;17.65;61.20;100051.31;123418;1102;104414;-78
2023/06/10 03:13:45;;;;;;;15.43;6.30;;;;;;;17.71;61.07;100061.92;123362;1102;104248;-78
2023/06/10 03:16:19;;;;;;;14.85;7.00;;;;;;;17.75;61.26;100054.86;123342;1102;104345;-78
2023/06/10 03:18:51;;;;;;;15.97;6.53;;;;;;;17.75;61.47;100047.78;123494;1102;104351;-78
2023/06/10 03:21:23;;;;;;;16.80;7.17;;;;;;;17.76;61.15;100052.21;123341;1102;104338;-77
2023/06/10 03:23:55;;;;;;;19.57;7.17;;;;;;;17.78;61.08;100049.55;123168;1102;104384;-77
2023/06/10 03:26:27;;;;;;;20.47;6.90;;;;;;;17.81;61.03;100043.34;123257;1102;104278;-78
2023/06/10 03:28:59;;;;;;;16.20;6.97;;;;;;;17.83;61.36;100055.73;123304;1102;104406;-78
2023/06/10 03:31:30;;;;;;;14.90;6.87;;;;;;;17.83;61.11;100045.12;123179;1102;105608;-77
2023/06/10 03:34:02;;;;;;;17.53;7.47;;;;;;;17.84;61.31;100052.20;123426;1102;104373;-77
2023/06/10 03:36:33;;;;;;;19.67;7.50;;;;;;;17.87;61.52;100052.20;123227;1102;104275;-78
2023/06/10 03:39:05;;;;;;;18.00;7.50;;;;;;;17.92;61.28;100047.80;123276;1102;104293;-78
2023/06/10 03:41:37;;;;;;;14.10;6.85;;;;;;;18.00;61.14;100055.75;123264;1100;104248;-78
2023/06/10 03:44:08;;;;;;;20.17;7.30;;;;;;;18.11;61.30;100050.42;123310;1101;104360;-78
2023/06/10 03:46:39;;;;;;;17.33;7.10;;;;;;;18.18;60.99;100051.28;123227;1102;104332;-78
2023/06/10 03:49:11;;;;;;;19.67;7.17;;;;;;;18.22;60.95;100051.27;123188;1102;104415;-78
2023/06/10 03:51:42;;;;;;;16.70;7.20;;;;;;;18.28;61.05;100043.28;123315;1102;104229;-78
2023/06/10 03:54:14;;;;;;;15.47;7.10;;;;;;;18.32;60.93;100046.80;123331;1102;104303;-77
2023/06/10 03:56:48;;;;;;;14.37;7.03;;;;;;;18.37;61.05;100042.38;123204;1100;104239;-78
2023/06/10 03:59:19;;;;;;;15.90;6.40;;;;;;;18.40;60.69;100047.68;123268;1100;104239;-77
2023/06/10 04:01:51;;;;;;;15.93;7.10;;;;;;;18.44;60.94;100049.41;123215;1102;104405;-77
2023/06/10 04:04:22;;;;;;;17.13;6.80;;;;;;;18.51;60.53;100058.23;123245;1102;104348;-78
2023/06/10 04:06:53;;;;;;;15.57;6.83;;;;;;;18.57;60.66;100047.58;123215;1102;104300;-79
2023/06/10 04:09:27;;;;;;;18.30;7.20;;;;;;;18.63;60.61;100052.88;123250;1102;104356;-79
2023/06/10 04:11:58;;;;;;;19.40;7.00;;;;;;;18.67;60.34;100046.66;123315;1102;104281;-78
2023/06/10 04:14:30;;;;;;;15.33;7.00;;;;;;;18.71;60.83;100052.84;123193;1102;104348;-78
2023/06/10 04:17:02;;;;;;;15.70;7.30;;;;;;;18.77;60.84;100049.28;123358;1102;104181;-77
2023/06/10 04:19:34;;;;;;;17.40;6.97;;;;;;;18.82;60.68;100048.38;123226;1102;104342;-77
2023/06/10 04:22:07;;;;;;;16.80;7.00;;;;;;;18.90;60.38;100047.46;123302;1102;105489;-77
2023/06/10 04:24:38;;;;;;;15.75;6.70;;;;;;;18.98;59.87;100054.52;123287;1102;104275;-78
2023/06/10 04:27:10;;;;;;;14.45;6.25;;;;;;;19.00;60.58;100054.50;123342;1102;104389;-77
2023/06/10 04:29:41;;;;;;;15.50;6.63;;;;;;;19.02;60.05;100044.73;123247;1102;104313;-77
2023/06/10 04:32:12;;;;;;;18.03;6.97;;;;;;;19.07;60.16;100047.37;123159;1102;104277;-78
2023/06/10 04:34:44;;;;;;;16.23;7.50;;;;;;;19.09;60.30;100049.14;123144;1102;104278;-78
2023/06/10 04:37:15;;;;;;;14.00;6.57;;;;;;;19.12;60.11;100050.87;123171;1100;104428;-77
2023/06/10 04:39:47;;;;;;;17.40;6.67;;;;;;;19.17;60.00;100060.59;123143;1100;104396;-77
2023/06/10 04:42:18;;;;;;;18.00;6.83;;;;;;;19.22;59.63;100057.91;123285;1102;104343;-78
2023/06/10 04:44:50;;;;;;;14.83;7.10;;;;;;;19.29;59.95;100058.73;123349;1102;104191;-78
2023/06/10 04:47:21;;;;;;;15.87;6.53;;;;;;;19.35;59.62;100046.30;123459;1102;104364;-77
2023/06/10 04:49:52;;;;;;;22.50;6.70;;;;;;;19.43;59.44;100046.24;123462;1102;104317;-77
2023/06/10 04:52:24;;;;;;;14.43;6.23;;;;;;;19.54;59.80;100054.11;123300;1102;104332;-77
2023/06/10 04:54:56;;;;;;;16.40;6.90;;;;;;;19.65;59.41;100052.27;123458;1101;104169;-78
2023/06/10 04:57:27;;;;;;;13.77;6.43;;;;;;;19.74;58.70;100056.59;123390;1101;104348;-75
2023/06/10 04:59:58;;;;;;;15.93;6.47;;;;;;;19.82;58.82;100053.91;123279;1100;104278;-76
2023/06/10 05:02:29;;;;;;;15.17;6.63;;;;;;;19.88;58.57;100054.75;123461;1102;104229;-76
2023/06/10 05:05:01;;;;;;;15.23;6.23;;;;;;;19.97;59.10;100052.89;123235;1102;104383;-76
2023/06/10 05:07:32;;;;;;;16.83;6.53;;;;;;;20.03;58.04;100056.36;123214;1102;104312;-77
2023/06/10 05:10:04;;;;;;;13.67;6.70;;;;;;;20.12;58.89;100052.73;123464;1102;104275;-77
2023/06/10 05:12:35;;;;;;;12.80;5.93;;;;;;;20.19;58.50;100051.74;123363;1102;104277;-76
2023/06/10 05:15:08;;;;;;;14.30;6.27;;;;;;;20.31;58.61;100049.88;123229;1100;104316;-77
2023/06/10 05:17:39;;;;;;;14.13;6.37;;;;;;;20.40;57.83;100055.09;123238;1102;104271;-78
2023/06/10 05:20:13;;;;;;;15.83;6.43;;;;;;;20.48;58.27;100051.41;123276;1102;104235;-78
2023/06/10 05:22:44;;;;;;;15.67;6.50;;;;;;;20.57;57.42;100047.77;123305;1102;104255;-77
2023/06/10 05:25:16;;;;;;;12.57;5.97;;;;;;;20.69;58.35;100043.20;123210;1102;104284;-77
2023/06/10 05:27:47;;;;;;;13.40;6.17;;;;;;;20.77;58.38;100039.55;123269;1102;104319;-78
2023/06/10 05:30:18;;;;;;;15.75;6.25;;;;;;;20.87;57.92;100042.96;123185;1100;104382;-78
2023/06/10 05:32:51;;;;;;;13.13;6.00;;;;;;;20.93;57.12;100034.88;123191;1100;104325;-78
2023/06/10 05:35:22;;;;;;;14.05;5.50;;;;;;;21.01;57.44;100034.77;123295;1101;104246;-77
2023/06/10 05:37:53;;;;;;;12.87;6.20;;;;;;;21.11;56.92;100033.70;123222;1102;104281;-76
2023/06/10 05:40:24;;;;;;;16.23;6.40;;;;;;;21.22;56.94;100032.67;123213;1102;104322;-76
2023/06/10 05:42:56;;;;;;;15.47;5.73;;;;;;;21.33;56.64;100030.70;123324;1102;104255;-76
2023/06/10 05:45:28;;;;;;;14.80;6.03;;;;;;;21.43;56.96;100029.66;123184;1102;104286;-78
2023/06/10 05:47:59;;;;;;;14.20;5.93;;;;;;;21.51;56.69;100034.91;123241;1102;104270;-77
2023/06/10 05:50:31;;;;;;;17.87;6.57;;;;;;;21.62;56.14;100034.73;123546;1102;104226;-78
2023/06/10 05:53:02;;;;;;;15.87;6.00;;;;;;;21.70;55.47;100035.47;123188;1099;104342;-77
2023/06/10 05:55:33;;;;;;;13.53;5.60;;;;;;;21.78;56.78;100033.54;123312;1101;104397;-78
2023/06/10 05:58:04;;;;;;;12.33;6.00;;;;;;;21.87;56.13;100024.49;123289;1100;104289;-77
2023/06/10 06:00:36;;;;;;;20.70;6.30;;;;;;;21.97;56.25;100030.53;123324;1101;104350;-77
2023/06/10 06:03:09;;;;;;;16.17;6.00;;;;;;;22.05;55.52;100025.95;123343;1102;104277;-77
2023/06/10 06:05:40;;;;;;;18.55;6.58;;;;;;;22.14;55.61;100024.88;123524;1102;119038;-75
2023/06/10 06:08:13;;;;;;;15.20;5.63;;;;;;;22.22;54.83;100022.92;123421;1102;104473;-77
2023/06/10 06:10:44;;;;;;;19.30;6.05;;;;;;;22.34;54.63;100019.17;123317;1102;104258;-76
2023/06/10 06:13:15;;;;;;;13.07;5.60;;;;;;;22.46;54.33;100016.24;123372;1102;104349;-76
2023/06/10 06:15:47;;;;;;;14.60;5.33;;;;;;;22.57;54.91;100019.56;123463;1102;104316;-78
2023/06/10 06:18:18;;;;;;;15.07;5.77;;;;;;;22.67;54.13;100011.34;123468;1102;104248;-78
2023/06/10 06:20:49;;;;;;;17.15;6.10;;;;;;;22.76;53.99;100014.69;123514;1102;104245;-77
2023/06/10 06:23:20;;;;;;;15.63;6.13;;;;;;;22.89;53.95;100009.97;123411;1102;104265;-77
2023/06/10 06:25:52;;;;;;;16.45;6.30;;;;;;;23.03;53.72;100003.39;123362;1100;104300;-77
2023/06/10 06:28:23;;;;;;;18.83;5.20;;;;;;;23.14;53.48;99998.73;123438;1102;104251;-77
2023/06/10 06:30:54;;;;;;;15.70;5.50;;;;;;;23.26;53.32;100005.55;123652;1102;104346;-78
2023/06/10 06:33:26;;;;;;;15.00;5.57;;;;;;;23.39;53.01;100008.80;123497;1102;104323;-78
2023/06/10 06:35:57;;;;;;;11.57;5.20;;;;;;;23.51;52.63;100005.81;123439;1102;104277;-77
2023/06/10 06:38:41;;;;;;;14.57;5.17;;;;;;;23.64;52.06;100007.27;123282;1102;104227;-77
2023/06/10 06:41:12;;;;;;;11.43;4.78;;;;;;;23.77;51.63;100012.31;123335;1102;104223;-76
2023/06/10 06:43:43;;;;;;;17.23;5.90;;;;;;;23.86;51.30;100009.42;123228;1102;104287;-75
2023/06/10 06:46:23;;;;;;;14.40;5.60;;;;;;;24.01;50.89;100002.75;123208;1102;104408;-76
2023/06/10 06:48:54;;;;;;;14.73;5.17;;;;;;;24.18;50.47;100005.86;123285;1102;104319;-75
2023/06/10 06:51:25;;;;;;;12.97;5.13;;;;;;;24.37;50.48;99990.11;123268;1102;104290;-76
2023/06/10 06:53:58;;;;;;;20.10;5.73;;;;;;;24.57;50.10;99991.34;123372;1102;104278;-75
2023/06/10 06:56:29;;;;;;;17.57;5.28;;;;;;;24.76;49.99;99987.18;123366;1102;104721;-76
2023/06/10 06:59:01;;;;;;;10.05;4.90;;;;;;;24.86;48.89;99977.03;123413;1102;104329;-75
2023/06/10 07:01:34;;;;;;;12.77;5.00;;;;;;;24.98;48.73;99978.45;123460;1102;104210;-76
2023/06/10 07:04:06;;;;;;;13.60;4.58;;;;;;;25.17;48.53;99975.17;123424;1102;104705;-76
2023/06/10 07:06:37;;;;;;;13.23;5.07;;;;;;;25.36;47.42;99976.33;123402;1102;104348;-76
2023/06/10 07:09:10;;;;;;;13.67;4.60;;;;;;;25.51;47.54;99980.31;123448;1102;104335;-76
2023/06/10 07:11:41;;;;;;;10.10;4.27;;;;;;;25.71;47.66;99968.88;123207;1101;104511;-75
2023/06/10 07:14:12;;;;;;;10.97;4.37;;;;;;;25.91;46.74;99972.65;123614;1102;104296;-76
2023/06/10 07:16:45;;;;;;;13.70;4.15;;;;;;;26.08;46.06;99966.69;123588;1101;104329;-76
2023/06/10 07:19:16;;;;;;;8.77;4.33;;;;;;;26.31;45.85;99965.84;123417;1102;104293;-76
2023/06/10 07:21:47;;;;;;;10.90;4.13;;;;;;;26.48;44.03;99971.44;123357;1102;104357;-77
2023/06/10 07:24:19;;;;;;;10.70;4.10;;;;;;;26.66;42.85;99969.89;123525;1102;104415;-77
2023/06/10 07:26:51;;;;;;;11.90;3.93;;;;;;;26.84;43.29;99960.19;123446;1102;104268;-73
2023/06/10 07:29:22;;;;;;;12.40;3.90;;;;;;;27.12;41.76;99963.59;123527;1102;104224;-75
2023/06/10 07:31:54;;;;;;;9.60;3.70;;;;;;;27.30;42.28;99967.31;123284;1102;104283;-77
2023/06/10 07:34:25;;;;;;;8.33;3.90;;;;;;;27.41;41.67;99971.34;123569;1102;104270;-76
2023/06/10 07:36:56;;;;;;;7.63;4.10;;;;;;;27.47;41.35;99964.80;123582;1102;104424;-75
2023/06/10 07:39:27;;;;;;;8.70;3.95;;;;;;;27.58;40.67;99965.23;123550;1102;104252;-76
2023/06/10 07:41:59;;;;;;;9.77;4.40;;;;;;;27.56;39.44;99969.80;123418;1102;104347;-76
2023/06/10 07:44:30;;;;;;;5.87;3.73;;;;;;;27.52;36.19;99970.89;123478;1102;104300;-76
2023/06/10 07:47:01;;;;;;;11.23;3.80;;;;;;;27.55;37.96;99961.78;123289;1102;104281;-75
2023/06/10 07:49:33;;;;;;;10.03;4.07;;;;;;;27.70;38.22;99962.94;123265;1102;104377;-77
2023/06/10 07:52:04;;;;;;;11.37;4.20;;;;;;;27.94;38.49;99969.05;123546;1102;104389;-77
2023/06/10 07:54:35;;;;;;;10.67;4.63;;;;;;;28.14;37.87;99965.48;123360;1102;104701;-77
2023/06/10 07:57:08;;;;;;;9.03;4.07;;;;;;;28.31;36.49;99962.91;123296;1101;104226;-78
2023/06/10 07:59:39;;;;;;;10.07;3.80;;;;;;;28.30;36.81;99958.45;123324;1102;104252;-74
2023/06/10 08:02:10;;;;;;;8.65;4.10;;;;;;;28.37;35.92;99967.12;123375;1102;104287;-75
2023/06/10 08:04:41;;;;;;;8.60;4.03;;;;;;;28.37;35.82;99956.33;123251;1102;104434;-76
2023/06/10 08:07:13;;;;;;;8.65;3.75;;;;;;;28.54;35.44;99952.84;123185;1102;104332;-75
2023/06/10 08:09:44;;;;;;;8.53;3.50;;;;;;;28.81;35.76;99941.69;123330;1102;104312;-78
2023/06/10 08:12:15;;;;;;;11.83;3.83;;;;;;;29.06;34.74;99949.45;123407;1102;104268;-77
2023/06/10 08:14:47;;;;;;;7.17;4.00;;;;;;;29.28;34.71;99952.00;123353;1102;104352;-76
2023/06/10 08:17:18;;;;;;;11.47;3.90;;;;;;;29.48;34.59;99944.69;123255;1102;105482;-75
2023/06/10 08:19:49;;;;;;;7.80;4.03;;;;;;;29.81;34.60;99938.48;123291;1100;104268;-77
2023/06/10 08:22:21;;;;;;;10.97;3.80;;;;;;;29.87;33.23;99946.27;123228;1102;104272;-75
2023/06/10 08:24:52;;;;;;;14.80;3.80;;;;;;;29.64;32.45;99944.75;123198;1102;104274;-73
2023/06/10 08:27:23;;;;;;;7.85;4.10;;;;;;;29.64;33.51;99948.35;123178;1102;104390;-75
2023/06/10 08:29:54;;;;;;;7.43;3.70;;;;;;;29.82;33.67;99946.52;123177;1102;104334;-73
2023/06/10 08:32:26;;;;;;;11.73;4.20;;;;;;;29.96;32.47;99944.92;123215;1102;104376;-74
2023/06/10 08:34:57;;;;;;;6.80;3.90;;;;;;;29.88;31.57;99932.67;123216;1102;104283;-76
2023/06/10 08:37:28;;;;;;;7.50;3.60;;;;;;;30.05;31.92;99929.06;123302;1102;104261;-75
2023/06/10 08:39:59;;;;;;;7.35;3.85;;;;;;;30.23;32.16;99929.89;123210;1102;104355;-76
2023/06/10 08:42:40;;;;;;;9.20;3.90;;;;;;;30.38;32.25;99930.00;123356;1102;104328;-77
2023/06/10 08:45:17;;;;;;;7.27;3.77;;;;;;;30.42;31.66;99934.32;123275;1102;104354;-74
2023/06/10 08:47:53;;;;;;;8.13;3.80;;;;;;;30.38;31.59;99936.27;123298;1102;104395;-75
2023/06/10 08:50:28;;;;;;;11.63;4.27;;;;;;;30.39;31.85;99932.65;123330;1102;104351;-77
2023/06/10 08:53:01;;;;;;;9.40;3.70;;;;;;;30.62;31.35;99922.34;123407;1101;104421;-76
2023/06/10 08:55:37;;;;;;;12.50;4.17;;;;;;;30.70;31.32;99921.91;123307;1102;104737;-76
2023/06/10 08:58:08;;;;;;;9.43;3.80;;;;;;;30.75;31.33;99926.11;123320;1102;104393;-76
2023/06/10 09:00:40;;;;;;;8.67;3.90;;;;;;;30.43;31.00;99920.70;123532;1102;104635;-76
2023/06/10 09:03:12;;;;;;;12.57;3.63;;;;;;;30.15;30.51;99926.72;123307;1102;104175;-75
2023/06/10 09:05:45;;;;;;;9.60;4.17;;;;;;;29.96;30.93;99924.14;123107;1102;104731;-76
2023/06/10 09:08:18;;;;;;;11.20;4.17;;;;;;;29.85;31.29;99931.97;123222;1102;105469;-76
2023/06/10 09:10:50;;;;;;;10.97;3.93;;;;;;;29.72;30.87;99927.19;123295;1103;104259;-76
2023/06/10 09:13:22;;;;;;;10.13;3.77;;;;;;;29.64;30.68;99921.32;123269;1102;104275;-76
2023/06/10 09:15:56;;;;;;;8.40;3.60;;;;;;;29.64;30.80;99912.31;123428;1100;104432;-77
2023/06/10 09:18:30;;;;;;;6.60;3.80;;;;;;;29.73;30.94;99907.31;123233;1102;104398;-76
2023/06/10 09:21:02;;;;;;;6.90;3.80;;;;;;;29.77;30.96;99908.02;123249;1102;104360;-79
2023/06/10 09:23:33;;;;;;;9.40;3.73;;;;;;;29.64;30.95;99905.09;123408;1102;104351;-75
2023/06/10 09:26:10;;;;;;;11.60;4.30;;;;;;;29.56;30.77;99915.42;123446;1100;104357;-77
2023/06/10 09:28:42;;;;;;;9.40;3.80;;;;;;;29.51;30.38;99907.55;123414;1102;104262;-77
2023/06/10 09:31:18;;;;;;;11.78;4.17;;;;;;;29.52;30.30;99898.50;123314;1102;104297;-76
2023/06/10 09:33:49;;;;;;;7.90;3.60;;;;;;;29.66;30.21;99900.47;123486;1102;104398;-77
2023/06/10 09:36:26;;;;;;;9.27;4.27;;;;;;;29.67;30.20;99902.23;123547;1102;104338;-78
2023/06/10 09:38:59;;;;;;;11.23;3.80;;;;;;;29.73;30.00;99896.50;123633;1102;104277;-78
2023/06/10 09:41:36;;;;;;;9.40;3.90;;;;;;;29.76;29.78;99896.34;123600;1100;104297;-78
2023/06/10 09:44:15;;;;;;;7.37;4.00;;;;;;;29.94;30.29;99891.78;123457;1102;104185;-77
2023/06/10 09:46:48;;;;;;;7.13;4.10;;;;;;;30.10;29.87;99883.69;123664;1100;104351;-77
2023/06/10 09:49:18;;;;;;;;;;;;;;;30.33;29.63;99878.84;123760;1100;104294;-80
2023/06/10 09:51:58;;;;;;;9.73;3.83;;;;;;;30.62;29.58;99887.14;123674;1102;104274;-78
2023/06/10 09:54:34;;;;;;;7.67;3.57;;;;;;;30.71;28.48;99894.73;123596;1102;104242;-77
2023/06/10 09:57:10;;;;;;;9.10;3.57;;;;;;;30.53;28.61;99882.29;123399;1102;104740;-76
2023/06/10 09:59:42;;;;;;;6.40;3.53;;;;;;;30.64;28.60;99885.25;123494;1102;104242;-76
2023/06/10 10:02:17;;;;;;;8.90;3.70;;;;;;;30.71;28.02;99885.75;123598;1102;104172;-79
2023/06/10 10:04:49;;;;;;;8.67;4.00;;;;;;;30.77;28.10;99885.40;123544;1102;104303;-77
2023/06/10 10:07:20;;;;;;;9.83;4.40;;;;;;;30.83;28.00;99877.78;123748;1102;104178;-79
2023/06/10 10:09:51;;;;;;;7.33;3.80;;;;;;;31.05;28.02;99879.26;123699;1102;104197;-77
2023/06/10 10:12:24;;;;;;;7.07;3.90;;;;;;;31.17;27.73;99878.52;123637;1102;104277;-78
2023/06/10 10:14:57;;;;;;;7.17;3.83;;;;;;;31.18;27.71;99888.41;123510;1102;104315;-77
2023/06/10 10:17:27;;;;;;;;;;;;;;;30.91;26.71;99879.17;123577;1100;104280;-78
2023/06/10 10:20:03;;;;;;;10.70;3.83;;;;;;;30.78;27.63;99876.33;123769;1102;104348;-78
2023/06/10 10:22:39;;;;;;;8.47;4.10;;;;;;;30.66;27.22;99875.19;123516;1102;104402;-76
2023/06/10 10:25:16;;;;;;;5.90;3.53;;;;;;;30.60;27.08;99872.84;123473;1100;104249;-78
2023/06/10 10:27:52;;;;;;;8.23;3.57;;;;;;;30.64;27.63;99869.86;123478;1102;104231;-78
2023/06/10 10:30:25;;;;;;;5.90;3.50;;;;;;;30.74;27.26;99867.48;123284;1102;104274;-76
2023/06/10 10:33:03;;;;;;;5.90;3.60;;;;;;;30.88;27.42;99852.27;123284;1102;104249;-77
2023/06/10 10:35:37;;;;;;;9.13;4.07;;;;;;;30.89;27.35;99859.45;123338;1102;104396;-78
2023/06/10 10:38:10;;;;;;;10.50;4.07;;;;;;;30.96;27.49;99860.80;123664;1102;104255;-80
2023/06/10 10:40:43;;;;;;;6.92;3.50;;;;;;;30.97;27.00;99859.89;123568;1102;104258;-77
2023/06/10 10:43:15;;;;;;;8.45;3.80;;;;;;;31.09;26.79;99859.16;123583;1102;104236;-76
2023/06/10 10:45:59;;;;;;;6.83;3.67;;;;;;;31.04;26.88;99857.67;123371;1102;104171;-77
2023/06/10 10:48:38;;;;;;;6.20;3.77;;;;;;;30.98;26.71;99857.09;123525;1102;104383;-79
2023/06/10 10:51:09;;;;;;;9.77;3.90;;;;;;;30.97;26.83;99851.76;123552;1102;105488;-79
2023/06/10 10:53:44;;;;;;;7.13;3.83;;;;;;;31.05;26.71;99844.04;123385;1102;104354;-77
2023/06/10 10:56:18;;;;;;;9.73;4.00;;;;;;;31.19;26.52;99851.34;123428;1102;104287;-78
2023/06/10 10:59:06;;;;;;;9.80;3.77;;;;;;;31.15;26.25;99839.82;123665;1102;104322;-79
2023/06/10 11:01:46;;;;;;;9.70;3.90;;;;;;;31.22;26.33;99844.88;123479;1102;108118;-77
2023/06/10 11:04:20;;;;;;;8.53;3.53;;;;;;;31.28;26.31;99849.92;123759;1102;104268;-79
2023/06/10 11:06:56;;;;;;;9.05;3.40;;;;;;;31.32;25.83;99843.33;123608;1102;104299;-77
2023/06/10 11:09:31;;;;;;;9.20;3.73;;;;;;;31.27;25.78;99851.73;123525;1100;104328;-78
2023/06/10 11:12:03;;;;;;;10.00;3.83;;;;;;;31.07;26.08;99846.66;123563;1102;117938;-77
2023/06/10 11:14:34;;;;;;;8.97;4.07;;;;;;;30.81;25.81;99841.80;123773;1102;104412;-79
2023/06/10 11:17:21;;;;;;;7.67;3.80;;;;;;;30.86;25.84;99843.38;123724;1101;104361;-79
2023/06/10 11:19:52;;;;;;;8.33;3.70;;;;;;;31.03;26.23;99840.56;123704;1102;104251;-78
2023/06/10 11:22:24;;;;;;;7.70;3.77;;;;;;;31.14;25.71;99837.20;123580;1102;104700;-79
2023/06/10 11:24:58;;;;;;;9.50;4.00;;;;;;;31.27;25.72;99832.77;123513;1102;104284;-78
2023/06/10 11:27:40;;;;;;;9.87;3.80;;;;;;;31.39;25.85;99824.87;123499;1102;104358;-76
2023/06/10 11:30:28;;;;;;;11.07;4.17;;;;;;;31.44;25.78;99830.87;123659;1100;104245;-79
2023/06/10 11:32:59;;;;;;;7.63;3.80;;;;;;;31.39;25.02;99842.00;123706;1102;104277;-78